createdAt,value
2018-09-10T00:00:00.349Z,56.00
2018-09-10T00:02:35.713Z,56.00
2018-09-10T00:05:10.192Z,55.90
2018-09-10T00:07:44.627Z,56.00
2018-09-10T00:10:20.553Z,56.10
2018-09-10T00:12:55.817Z,56.20
2018-09-10T00:15:30.250Z,56.20
2018-09-10T00:18:05.650Z,56.60
2018-09-10T00:20:40.920Z,56.20
2018-09-10T00:23:15.631Z,56.20
2018-09-10T00:25:50.132Z,56.20
2018-09-10T00:28:25.731Z,56.30
2018-09-10T00:31:01.205Z,56.50
2018-09-10T00:33:35.990Z,56.60
2018-09-10T00:36:10.942Z,56.50
2018-09-10T00:38:45.355Z,57.10
2018-09-10T00:43:58.894Z,56.50
2018-09-10T00:46:33.933Z,56.60
2018-09-10T00:49:08.836Z,56.80
2018-09-10T00:51:43.176Z,56.90
2018-09-10T00:54:17.677Z,56.90
2018-09-10T00:56:52.103Z,56.90
2018-09-10T00:59:27.366Z,56.90
2018-09-10T01:02:01.917Z,57.00
2018-09-10T01:04:36.991Z,57.10
2018-09-10T01:07:12.118Z,57.10
2018-09-10T01:09:47.627Z,57.20
2018-09-10T01:12:22.215Z,57.00
2018-09-10T01:14:57.445Z,56.90
2018-09-10T01:17:32.034Z,56.90
2018-09-10T01:20:06.591Z,56.90
2018-09-10T01:22:41.734Z,56.90
2018-09-10T01:25:16.117Z,56.80
2018-09-10T01:27:50.818Z,56.90
2018-09-10T01:30:26.001Z,56.90
2018-09-10T01:33:01.644Z,56.80
2018-09-10T01:35:36.074Z,57.30
2018-09-10T01:38:11.832Z,56.70
2018-09-10T01:40:46.852Z,56.70
2018-09-10T01:43:21.283Z,56.70
2018-09-10T01:45:55.742Z,56.70
2018-09-10T01:48:30.116Z,56.80
2018-09-10T01:51:05.439Z,57.30
2018-09-10T01:53:40.514Z,56.90
2018-09-10T01:56:15.325Z,56.80
2018-09-10T01:58:52.379Z,57.00
2018-09-10T02:01:27.114Z,57.10
2018-09-10T02:04:01.571Z,57.10
2018-09-10T02:06:36.659Z,57.20
2018-09-10T02:09:11.342Z,57.20
2018-09-10T02:11:45.791Z,57.20
2018-09-10T02:14:21.007Z,57.30
2018-09-10T02:16:56.317Z,57.20
2018-09-10T02:19:30.806Z,57.20
2018-09-10T02:22:06.030Z,57.30
2018-09-10T02:24:40.577Z,57.20
2018-09-10T02:27:15.386Z,57.20
2018-09-10T02:29:49.970Z,57.30
2018-09-10T02:32:25.262Z,57.40
2018-09-10T02:34:59.697Z,57.40
2018-09-10T02:37:34.229Z,57.40
2018-09-10T02:40:08.627Z,57.50
2018-09-10T02:42:43.877Z,57.50
2018-09-10T02:45:18.670Z,57.60
2018-09-10T02:47:53.257Z,57.00
2018-09-10T02:50:27.775Z,57.50
2018-09-10T02:53:02.202Z,57.50
2018-09-10T02:55:37.973Z,57.60
2018-09-10T02:58:15.465Z,57.50
2018-09-10T03:00:50.278Z,57.60
2018-09-10T03:03:25.009Z,57.70
2018-09-10T03:05:59.510Z,57.70
2018-09-10T03:08:36.229Z,57.70
2018-09-10T03:11:10.774Z,57.60
2018-09-10T03:13:46.017Z,57.60
2018-09-10T03:16:20.442Z,57.70
2018-09-10T03:18:54.892Z,57.70
2018-09-10T03:21:29.294Z,57.70
2018-09-10T03:24:03.845Z,57.70
2018-09-10T03:26:38.202Z,57.70
2018-09-10T03:29:12.739Z,57.80
2018-09-10T03:31:47.116Z,57.80
2018-09-10T03:34:21.522Z,57.90
2018-09-10T03:36:55.956Z,57.90
2018-09-10T03:39:30.420Z,57.90
2018-09-10T03:42:04.929Z,58.10
2018-09-10T03:44:40.152Z,58.60
2018-09-10T03:47:14.620Z,58.20
2018-09-10T03:49:49.041Z,58.30
2018-09-10T03:52:23.438Z,58.40
2018-09-10T03:54:58.223Z,58.30
2018-09-10T03:57:32.603Z,58.30
2018-09-10T04:00:07.102Z,58.30
2018-09-10T04:02:41.547Z,58.40
2018-09-10T04:05:17.563Z,58.50
2018-09-10T04:07:51.997Z,58.50
2018-09-10T04:10:26.457Z,58.40
2018-09-10T04:13:00.965Z,58.50
2018-09-10T04:15:35.333Z,58.50
2018-09-10T04:18:09.863Z,58.60
2018-09-10T04:20:44.306Z,58.60
2018-09-10T04:23:18.811Z,58.70
2018-09-10T04:25:53.341Z,58.70
2018-09-10T04:28:27.916Z,58.60
2018-09-10T04:31:02.385Z,58.70
2018-09-10T04:33:36.808Z,58.60
2018-09-10T04:36:11.287Z,58.70
2018-09-10T04:38:45.623Z,59.20
2018-09-10T04:41:19.999Z,58.80
2018-09-10T04:43:54.479Z,58.80
2018-09-10T04:46:29.769Z,58.70
2018-09-10T04:49:04.213Z,58.70
2018-09-10T04:51:38.597Z,58.70
2018-09-10T04:54:14.065Z,58.80
2018-09-10T04:56:49.027Z,58.80
2018-09-10T04:59:23.695Z,58.90
2018-09-10T05:01:58.587Z,59.00
2018-09-10T05:04:33.140Z,59.00
2018-09-10T05:07:07.728Z,59.00
2018-09-10T05:09:43.262Z,59.00
2018-09-10T05:12:21.301Z,59.10
2018-09-10T05:14:55.894Z,59.10
2018-09-10T05:17:30.341Z,59.10
2018-09-10T05:20:06.464Z,59.20
2018-09-10T05:22:40.855Z,59.20
2018-09-10T05:25:15.308Z,59.20
2018-09-10T05:27:50.373Z,59.20
2018-09-10T05:30:24.755Z,59.20
2018-09-10T05:32:59.213Z,59.20
2018-09-10T05:35:33.851Z,59.30
2018-09-10T05:38:09.006Z,59.30
2018-09-10T05:40:43.537Z,59.40
2018-09-10T05:43:17.938Z,59.50
2018-09-10T05:45:52.353Z,59.60
2018-09-10T05:48:26.882Z,59.60
2018-09-10T05:51:02.950Z,59.60
2018-09-10T05:53:37.419Z,59.70
2018-09-10T05:56:11.979Z,59.70
2018-09-10T05:58:46.460Z,60.40
2018-09-10T06:01:21.518Z,60.50
2018-09-10T06:03:56.026Z,59.90
2018-09-10T06:06:30.455Z,60.00
2018-09-10T06:09:06.055Z,60.00
2018-09-10T06:11:40.502Z,60.20
2018-09-10T06:14:15.127Z,60.20
2018-09-10T06:16:49.967Z,60.30
2018-09-10T06:19:25.368Z,60.40
2018-09-10T06:21:59.828Z,61.30
2018-09-10T06:24:34.266Z,61.30
2018-09-10T06:27:08.724Z,61.90
2018-09-10T06:29:43.859Z,62.30
2018-09-10T06:32:20.447Z,62.60
2018-09-10T06:34:54.984Z,62.90
2018-09-10T06:37:29.396Z,63.10
2018-09-10T06:40:06.279Z,63.20
2018-09-10T06:42:40.735Z,63.20
2018-09-10T06:45:15.540Z,63.40
2018-09-10T06:47:51.229Z,63.40
2018-09-10T06:50:25.886Z,63.20
2018-09-10T06:53:02.114Z,63.90
2018-09-10T06:55:36.660Z,63.40
2018-09-10T06:58:13.069Z,63.30
2018-09-10T07:00:47.489Z,63.10
2018-09-10T07:03:21.910Z,62.70
2018-09-10T07:05:56.954Z,62.30
2018-09-10T07:08:31.384Z,61.70
2018-09-10T07:11:07.328Z,61.50
2018-09-10T07:13:42.528Z,61.70
2018-09-10T07:16:17.229Z,61.90
2018-09-10T07:18:51.796Z,62.10
2018-09-10T07:21:26.735Z,61.50
2018-09-10T07:24:02.019Z,61.20
2018-09-10T07:26:37.314Z,61.00
2018-09-10T07:29:12.205Z,61.50
2018-09-10T07:31:46.654Z,61.60
2018-09-10T07:34:21.088Z,61.60
2018-09-10T07:36:55.476Z,61.30
2018-09-10T07:39:29.961Z,61.10
2018-09-10T07:42:05.052Z,60.60
2018-09-10T07:44:39.656Z,60.30
2018-09-10T07:47:14.446Z,60.20
2018-09-10T07:49:48.872Z,59.80
2018-09-10T07:52:23.720Z,59.50
2018-09-10T07:54:58.642Z,59.50
2018-09-10T07:57:33.183Z,59.20
2018-09-10T08:00:08.258Z,58.90
2018-09-10T08:02:42.743Z,58.90
2018-09-10T08:05:17.225Z,58.30
2018-09-10T08:07:52.333Z,58.20
2018-09-10T08:10:27.281Z,58.10
2018-09-10T08:13:02.054Z,57.50
2018-09-10T08:15:36.482Z,57.40
2018-09-10T08:18:10.866Z,57.50
2018-09-10T08:20:45.774Z,57.20
2018-09-10T08:23:20.183Z,56.90
2018-09-10T08:25:54.570Z,56.40
2018-09-10T08:28:29.653Z,55.80
2018-09-10T08:31:04.046Z,55.70
2018-09-10T08:33:39.181Z,55.30
2018-09-10T08:36:13.670Z,55.40
2018-09-10T08:38:48.102Z,54.60
2018-09-10T08:41:23.979Z,54.60
2018-09-10T08:43:59.028Z,54.70
2018-09-10T08:46:33.539Z,54.40
2018-09-10T08:49:07.945Z,53.80
2018-09-10T08:51:42.385Z,53.60
2018-09-10T08:54:16.924Z,53.40
2018-09-10T08:56:51.226Z,52.80
2018-09-10T08:59:25.619Z,52.50
2018-09-10T09:02:00.069Z,52.10
2018-09-10T09:04:35.138Z,52.10
2018-09-10T09:07:09.842Z,52.30
2018-09-10T09:09:44.974Z,52.20
2018-09-10T09:12:20.293Z,51.20
2018-09-10T09:14:54.691Z,50.90
2018-09-10T09:17:29.191Z,50.80
2018-09-10T09:20:03.598Z,50.30
2018-09-10T09:22:38.028Z,50.20
2018-09-10T09:25:12.418Z,50.00
2018-09-10T09:27:46.833Z,50.50
2018-09-10T09:30:21.273Z,49.60
2018-09-10T09:32:55.654Z,49.70
2018-09-10T09:35:35.385Z,49.60
2018-09-10T09:38:15.016Z,49.10
2018-09-10T09:40:54.623Z,49.00
2018-09-10T09:43:35.113Z,48.70
2018-09-10T09:46:12.081Z,48.20
2018-09-10T09:48:46.617Z,48.40
2018-09-10T09:51:21.019Z,48.40
2018-09-10T09:53:55.450Z,48.00
2018-09-10T09:56:29.915Z,47.90
2018-09-10T09:59:04.285Z,47.90
2018-09-10T10:01:40.766Z,48.70
2018-09-10T10:04:15.265Z,48.00
2018-09-10T10:06:50.375Z,47.90
2018-09-10T10:09:24.805Z,47.60
2018-09-10T10:11:59.218Z,47.10
2018-09-10T10:14:34.798Z,46.30
2018-09-10T10:17:09.254Z,46.60
2018-09-10T10:19:43.657Z,46.60
2018-09-10T10:22:18.266Z,46.90
2018-09-10T10:24:52.871Z,46.50
2018-09-10T10:27:27.274Z,46.70
2018-09-10T10:30:01.705Z,45.90
2018-09-10T10:32:36.238Z,46.10
2018-09-10T10:35:10.618Z,46.00
2018-09-10T10:37:45.059Z,45.30
2018-09-10T10:40:19.433Z,44.80
2018-09-10T10:42:53.819Z,43.70
2018-09-10T10:45:28.224Z,43.00
2018-09-10T10:48:03.227Z,42.80
2018-09-10T10:50:37.768Z,41.90
2018-09-10T10:53:12.342Z,41.50
2018-09-10T10:55:47.098Z,40.70
2018-09-10T11:01:08.250Z,40.20
2018-09-10T11:03:42.689Z,40.60
2018-09-10T11:06:17.111Z,41.60
2018-09-10T11:08:54.531Z,40.20
2018-09-10T11:11:58.747Z,39.20
2018-09-10T11:14:33.162Z,39.30
2018-09-10T11:17:07.536Z,39.60
2018-09-10T11:19:41.947Z,39.60
2018-09-10T11:22:16.355Z,39.10
2018-09-10T11:24:50.789Z,39.00
2018-09-10T11:27:25.554Z,38.90
2018-09-10T11:29:59.983Z,38.20
2018-09-10T11:32:35.142Z,37.20
2018-09-10T11:35:50.625Z,34.90
2018-09-10T11:38:26.003Z,35.50
2018-09-10T11:41:03.137Z,35.80
2018-09-10T11:43:40.767Z,34.60
2018-09-10T11:46:15.528Z,35.00
2018-09-10T11:48:50.996Z,34.30
2018-09-10T11:51:25.951Z,35.50
2018-09-10T12:44:44.652Z,35.10
2018-09-10T12:47:19.077Z,34.30
2018-09-10T12:49:53.558Z,33.20
2018-09-10T12:52:35.356Z,32.50
2018-09-10T12:55:14.358Z,33.90
2018-09-10T12:57:48.749Z,34.00
2018-09-10T13:00:23.305Z,34.70
2018-09-10T13:02:57.739Z,34.60
2018-09-10T13:05:33.138Z,34.40
2018-09-10T13:08:07.950Z,34.00
2018-09-10T13:10:42.340Z,34.00
2018-09-10T13:13:17.771Z,35.20
2018-09-10T13:15:52.908Z,34.00
2018-09-10T13:18:27.302Z,33.90
2018-09-10T13:21:01.802Z,34.20
2018-09-10T13:23:36.183Z,34.40
2018-09-10T13:26:10.647Z,33.90
2018-09-10T13:28:45.094Z,33.50
2018-09-10T13:31:19.575Z,33.60
2018-09-10T13:33:54.007Z,34.30
2018-09-10T13:36:28.481Z,34.40
2018-09-10T13:39:03.044Z,34.40
2018-09-10T13:41:37.502Z,34.70
2018-09-10T13:44:11.933Z,35.20
2018-09-10T13:46:46.386Z,34.50
2018-09-10T13:49:20.896Z,34.70
2018-09-10T13:51:55.340Z,34.50
2018-09-10T13:54:29.823Z,34.50
2018-09-10T13:57:04.248Z,34.70
2018-09-10T13:59:38.676Z,35.40
2018-09-10T14:02:13.245Z,35.00
2018-09-10T14:04:47.660Z,34.80
2018-09-10T14:07:22.066Z,35.50
2018-09-10T14:09:56.496Z,34.80
2018-09-10T14:12:30.911Z,35.20
2018-09-10T14:15:05.392Z,35.70
2018-09-10T14:17:39.923Z,36.40
2018-09-10T14:20:14.439Z,36.50
2018-09-10T14:22:48.919Z,36.70
2018-09-10T14:25:23.295Z,36.40
2018-09-10T14:27:57.716Z,35.20
2018-09-10T14:30:32.188Z,36.00
2018-09-10T14:33:06.683Z,35.50
2018-09-10T14:35:41.204Z,34.30
2018-09-10T14:38:15.643Z,34.60
2018-09-10T14:40:50.180Z,35.80
2018-09-10T14:43:24.562Z,37.00
2018-09-10T14:45:58.949Z,37.40
2018-09-10T14:48:33.365Z,37.90
2018-09-10T14:51:07.769Z,38.50
2018-09-10T14:53:42.750Z,38.10
2018-09-10T14:56:17.138Z,38.30
2018-09-10T14:58:51.761Z,39.30
2018-09-10T15:01:26.193Z,39.00
2018-09-10T15:04:00.618Z,39.00
2018-09-10T15:06:35.043Z,38.10
2018-09-10T15:09:09.929Z,39.30
2018-09-10T15:11:44.335Z,38.90
2018-09-10T15:14:18.777Z,38.50
2018-09-10T15:16:53.173Z,37.80
2018-09-10T15:19:27.603Z,37.80
2018-09-10T15:22:02.070Z,37.50
2018-09-10T15:24:36.492Z,38.00
2018-09-10T15:27:10.859Z,37.20
2018-09-10T15:29:45.281Z,37.50
2018-09-10T15:32:19.659Z,37.80
2018-09-10T15:34:54.088Z,38.30
2018-09-10T15:37:28.448Z,38.00
2018-09-10T15:40:02.951Z,37.50
2018-09-10T15:42:37.382Z,38.20
2018-09-10T15:45:11.811Z,37.90
2018-09-10T15:47:46.290Z,38.00
2018-09-10T15:50:20.721Z,37.90
2018-09-10T15:52:55.124Z,37.60
2018-09-10T15:55:29.502Z,37.60
2018-09-10T15:58:03.958Z,37.50
2018-09-10T16:00:38.337Z,37.40
2018-09-10T16:03:12.798Z,37.40
2018-09-10T16:05:47.288Z,37.30
2018-09-10T16:08:21.787Z,37.50
2018-09-10T16:10:56.204Z,37.50
2018-09-10T16:13:30.638Z,38.50
2018-09-10T16:16:04.985Z,38.00
2018-09-10T16:18:39.432Z,38.10
2018-09-10T16:21:13.966Z,38.30
2018-09-10T16:23:48.405Z,38.50
2018-09-10T16:26:22.867Z,38.90
2018-09-10T16:28:57.259Z,39.40
2018-09-10T16:31:32.031Z,39.60
2018-09-10T16:34:06.554Z,40.00
2018-09-10T16:36:41.066Z,40.20
2018-09-10T16:39:15.492Z,40.30
2018-09-10T16:41:49.927Z,40.50
2018-09-10T16:44:24.334Z,40.60
2018-09-10T16:46:58.743Z,40.70
2018-09-10T16:49:33.109Z,41.30
2018-09-10T16:52:07.650Z,41.80
2018-09-10T16:54:42.133Z,42.10
2018-09-10T16:57:16.482Z,42.20
2018-09-10T16:59:50.904Z,42.30
2018-09-10T17:02:25.309Z,42.50
2018-09-10T17:04:59.737Z,43.30
2018-09-10T17:07:34.179Z,43.00
2018-09-10T17:10:08.646Z,43.20
2018-09-10T17:12:43.396Z,43.30
2018-09-10T17:15:17.763Z,43.60
2018-09-10T17:17:52.205Z,43.80
2018-09-10T17:20:26.641Z,43.80
2018-09-10T17:23:01.583Z,43.80
2018-09-10T17:25:36.014Z,44.10
2018-09-10T17:28:10.411Z,44.10
2018-09-10T17:30:44.842Z,44.20
2018-09-10T17:33:19.344Z,44.40
2018-09-10T17:35:53.715Z,44.70
2018-09-10T17:38:28.402Z,44.80
2018-09-10T17:41:02.816Z,45.00
2018-09-10T17:43:37.330Z,45.10
2018-09-10T17:46:11.778Z,45.20
2018-09-10T17:48:46.420Z,45.20
2018-09-10T17:51:20.885Z,45.20
2018-09-10T17:53:55.351Z,45.30
2018-09-10T17:56:29.779Z,45.70
2018-09-10T17:59:04.460Z,45.90
2018-09-10T18:01:38.930Z,46.00
2018-09-10T18:04:15.204Z,46.20
2018-09-10T18:06:50.101Z,46.20
2018-09-10T18:09:24.506Z,46.30
2018-09-10T18:11:58.885Z,46.50
2018-09-10T18:14:33.240Z,46.70
2018-09-10T18:17:07.619Z,46.70
2018-09-10T18:19:42.097Z,46.80
2018-09-10T18:22:16.453Z,47.10
2018-09-10T18:24:50.906Z,47.30
2018-09-10T18:27:25.256Z,47.50
2018-09-10T18:29:59.704Z,47.70
2018-09-10T18:32:34.087Z,47.80
2018-09-10T18:35:08.538Z,47.90
2018-09-10T18:37:42.901Z,48.00
2018-09-10T18:40:17.362Z,48.10
2018-09-10T18:42:51.801Z,48.50
2018-09-10T18:45:26.843Z,48.50
2018-09-10T18:48:01.247Z,48.40
2018-09-10T18:50:35.653Z,48.50
2018-09-10T18:53:10.164Z,48.70
2018-09-10T18:55:44.627Z,48.60
2018-09-10T18:58:19.059Z,48.70
2018-09-10T19:00:53.519Z,48.80
2018-09-10T19:03:27.851Z,49.00
2018-09-10T19:06:02.363Z,49.20
2018-09-10T19:08:37.560Z,49.40
2018-09-10T19:11:12.025Z,49.60
2018-09-10T19:13:46.418Z,49.80
2018-09-10T19:16:20.875Z,49.80
2018-09-10T19:18:55.315Z,49.90
2018-09-10T19:21:29.714Z,49.90
2018-09-10T19:24:04.104Z,50.20
2018-09-10T19:26:38.573Z,50.30
2018-09-10T19:29:12.989Z,50.60
2018-09-10T19:31:50.187Z,50.60
2018-09-10T19:34:24.574Z,50.50
2018-09-10T19:36:59.386Z,50.40
2018-09-10T19:39:33.832Z,50.60
2018-09-10T19:42:09.242Z,50.60
2018-09-10T19:44:44.098Z,50.70
2018-09-10T19:47:18.520Z,50.80
2018-09-10T19:49:53.015Z,50.90
2018-09-10T19:52:27.438Z,50.90
2018-09-10T19:55:01.878Z,51.50
2018-09-10T19:57:36.453Z,51.00
2018-09-10T20:00:10.918Z,51.10
2018-09-10T20:02:45.295Z,51.10
2018-09-10T20:05:19.786Z,51.20
2018-09-10T20:07:54.521Z,51.20
2018-09-10T20:10:28.917Z,51.20
2018-09-10T20:13:03.254Z,51.40
2018-09-10T20:15:37.623Z,51.40
2018-09-10T20:18:12.025Z,51.70
2018-09-10T20:20:46.370Z,51.80
2018-09-10T20:23:20.745Z,52.00
2018-09-10T20:25:55.074Z,52.00
2018-09-10T20:28:29.432Z,52.10
2018-09-10T20:31:04.167Z,52.40
2018-09-10T20:34:11.922Z,52.40
2018-09-10T20:36:46.322Z,52.60
2018-09-10T20:39:20.667Z,52.70
2018-09-10T20:41:55.058Z,52.80
2018-09-10T20:44:30.362Z,52.90
2018-09-10T20:47:04.747Z,53.40
2018-09-10T20:49:39.201Z,53.30
2018-09-10T20:52:13.689Z,53.20
2018-09-10T20:54:48.173Z,53.30
2018-09-10T20:57:22.538Z,53.30
2018-09-10T20:59:56.939Z,53.40
2018-09-10T21:02:31.323Z,53.40
2018-09-10T21:05:06.090Z,53.40
2018-09-10T21:07:40.517Z,53.60
2018-09-10T21:10:14.858Z,53.90
2018-09-10T21:12:49.227Z,53.90
2018-09-10T21:15:23.720Z,53.80
2018-09-10T21:17:58.098Z,53.80
2018-09-10T21:20:32.483Z,53.80
2018-09-10T21:23:06.841Z,53.80
2018-09-10T21:25:41.209Z,53.80
2018-09-10T21:28:15.599Z,54.00
2018-09-10T21:30:50.014Z,54.10
2018-09-10T21:33:24.377Z,54.20
2018-09-10T21:35:59.099Z,54.40
2018-09-10T21:38:33.505Z,54.40
2018-09-10T21:41:07.937Z,54.50
2018-09-10T21:43:42.326Z,54.80
2018-09-10T21:46:16.701Z,54.80
2018-09-10T21:48:51.093Z,54.90
2018-09-10T21:51:25.478Z,54.90
2018-09-10T21:53:59.811Z,55.00
2018-09-10T21:56:34.185Z,55.00
2018-09-10T21:59:08.678Z,55.30
2018-09-10T22:01:43.136Z,55.30
2018-09-10T22:04:17.501Z,55.30
2018-09-10T22:06:51.915Z,55.30
2018-09-10T22:09:26.352Z,55.50
2018-09-10T22:12:03.581Z,55.70
2018-09-10T22:14:37.950Z,56.20
2018-09-10T22:17:12.446Z,56.20
2018-09-10T22:19:46.880Z,55.90
2018-09-10T22:22:21.314Z,55.90
2018-09-10T22:24:55.674Z,55.90
2018-09-10T22:27:30.030Z,55.80
2018-09-10T22:30:04.874Z,55.90
2018-09-10T22:32:39.211Z,56.00
2018-09-10T22:35:13.735Z,56.00
2018-09-10T22:37:48.150Z,55.90
2018-09-10T22:40:22.619Z,55.90
2018-09-10T22:42:56.956Z,55.90
2018-09-10T22:45:31.338Z,55.80
2018-09-10T22:48:05.937Z,55.90
2018-09-10T22:50:40.277Z,56.00
2018-09-10T22:53:14.654Z,56.00
2018-09-10T22:55:49.018Z,56.00
2018-09-10T22:58:23.529Z,56.10
2018-09-10T23:00:57.942Z,56.20
2018-09-10T23:03:32.306Z,56.20
2018-09-10T23:06:06.693Z,56.30
2018-09-10T23:08:41.111Z,56.30
2018-09-10T23:11:15.477Z,56.20
2018-09-10T23:13:50.011Z,56.20
2018-09-10T23:16:24.409Z,56.30
2018-09-10T23:18:58.789Z,56.20
2018-09-10T23:21:33.162Z,56.30
2018-09-10T23:24:07.613Z,56.20
2018-09-10T23:26:41.978Z,56.30
2018-09-10T23:29:16.384Z,56.30
2018-09-10T23:31:50.781Z,56.40
2018-09-10T23:34:25.191Z,56.50
2018-09-10T23:36:59.557Z,56.50
2018-09-10T23:39:33.919Z,56.70
2018-09-10T23:42:08.274Z,56.20
2018-09-10T23:44:42.669Z,56.50
2018-09-10T23:47:17.026Z,56.50
2018-09-10T23:49:51.444Z,56.60
2018-09-10T23:52:25.781Z,56.60
2018-09-10T23:55:00.215Z,56.50
2018-09-10T23:57:34.628Z,56.40
